Bahama, North Carolina
Current Conditions -  °F | °C
As of 5:15 AM on Sunday 26 Oct 2014 (Local Time) from KTDF Reporting Station
Clear Clear  
Wind Chill: 61°   Ceiling: Unl
Heat Index: 61°   Visibility: 10mi
Dew Point: 50°   Wind: 3mph
Humidity: 68%   Direction: 280°W
Pressure: 29.84"   Gusts: NA
Location:  36.17°N, 78.88°W
Report Text: KTDF 260915Z AUTO 28003KT 10SM CLR 16/10 A2984 RMK AO2
Loading
Personal Weather Stations






























Interactive Weather Map
Tropical Storm Tracking
New forecast layout! Learn more

10-Day Weather Forecast

Advertisements
Track Severe Weather on mobile